To NAV CANADA Home Page Login to a new session Search on AWWS site Feedback and Comments Disclaimer Vers la page française équivalente Tips FAQ What's new on the site To the Forecasts and Observations / NOTAM section To "File a Flight Plan" website Publications and other links Update of the User's profile FIC Telephone Numbers My Weather Data Folder Route Weather Data Regional Weather Data Local Weather Data To the Forecasts and Observations / NOTAM section
Request Generated 04/23/2014 at 22:04:20 UTC . Weather information available at that time is displayed.

METAR/TAF

MAKKOVIK/NL    

METAR CYFT 232000Z 11019KT 15SM FEW025 M00/M03 A3004 RMK SC2 LAST OB/NEXT 240900 UTC SLP179=
METAR CYFT 231900Z 12019KT 15SM FEW020 SCT120 M01/M04 A3002 RMK SC1AC3 TR SC SLP172=

CYFT - No TAF is issued for this station

Your time UTC time
Weather data provided by Environment Canada and NAV CANADA